createdAt,value
2023-10-15T00:03:37.969Z,69.45
2023-10-15T00:09:58.123Z,69.94
2023-10-15T00:16:27.750Z,70.17
2023-10-15T00:22:23.122Z,70.68
2023-10-15T00:27:28.671Z,70.95
2023-10-15T00:32:58.645Z,71.51
2023-10-15T00:46:39.311Z,72.07
2023-10-15T00:52:12.163Z,72.56
2023-10-15T00:57:28.224Z,72.93
2023-10-15T01:03:02.677Z,73.16
2023-10-15T01:08:53.464Z,72.81
2023-10-15T01:13:57.540Z,73.12
2023-10-15T01:19:13.391Z,73.25
2023-10-15T01:25:10.831Z,72.99
2023-10-15T01:30:19.043Z,73.44
2023-10-15T01:42:43.914Z,74.18
2023-10-15T01:56:00.212Z,74.32
2023-10-15T02:01:18.462Z,73.98
2023-10-15T02:07:40.821Z,73.87
2023-10-15T02:35:56.351Z,74.01
2023-10-15T02:42:35.672Z,74.32
2023-10-15T02:48:34.390Z,74.33
2023-10-15T02:53:41.034Z,74.50
2023-10-15T03:00:07.196Z,74.60
2023-10-15T03:05:16.377Z,74.62
2023-10-15T03:25:37.470Z,74.67
2023-10-15T03:31:18.391Z,74.71
2023-10-15T03:37:16.319Z,74.99
2023-10-15T03:43:17.066Z,74.89
2023-10-15T03:49:37.547Z,72.79
2023-10-15T04:01:50.544Z,65.66
2023-10-15T04:07:20.649Z,64.32
2023-10-15T04:12:28.729Z,63.72
2023-10-15T04:17:33.015Z,62.93
2023-10-15T04:22:46.559Z,61.07
2023-10-15T04:35:13.318Z,60.20
2023-10-15T04:41:42.593Z,62.67
2023-10-15T04:48:14.145Z,61.87
2023-10-15T04:53:25.859Z,60.12
2023-10-15T04:58:30.237Z,64.32
2023-10-15T05:20:10.532Z,61.76
2023-10-15T05:26:56.644Z,62.29
2023-10-15T05:32:56.510Z,59.92
2023-10-15T05:38:01.399Z,63.92
2023-10-15T05:43:06.417Z,60.98
2023-10-15T05:48:10.335Z,60.38
2023-10-15T05:53:15.892Z,62.93
2023-10-15T05:58:20.935Z,59.77
2023-10-15T06:03:25.389Z,61.52
2023-10-15T06:08:30.327Z,62.15
2023-10-15T06:13:34.614Z,59.70
2023-10-15T06:18:38.872Z,61.57
2023-10-15T06:23:44.479Z,62.05
2023-10-15T06:28:48.349Z,59.56
2023-10-15T06:33:52.640Z,62.31
2023-10-15T06:38:58.498Z,60.50
2023-10-15T06:44:02.664Z,60.45
2023-10-15T06:49:09.453Z,62.85
2023-10-15T07:10:34.827Z,60.49
2023-10-15T07:15:39.744Z,60.30
2023-10-15T07:27:59.739Z,63.19
2023-10-15T07:33:32.473Z,62.06
2023-10-15T07:38:38.109Z,62.45
2023-10-15T07:52:26.611Z,62.15
2023-10-15T07:59:15.591Z,61.69
2023-10-15T08:04:19.973Z,62.70
2023-10-15T08:09:24.280Z,62.10
2023-10-15T08:14:53.293Z,60.69
2023-10-15T08:27:57.321Z,61.20
2023-10-15T08:34:39.934Z,61.91
2023-10-15T08:39:43.858Z,60.86
2023-10-15T08:44:51.623Z,59.40
2023-10-15T08:49:57.136Z,60.08
2023-10-15T08:55:02.072Z,59.24
2023-10-15T09:01:44.403Z,58.33
2023-10-15T09:06:50.257Z,57.62
2023-10-15T09:11:56.287Z,57.75
2023-10-15T09:17:00.489Z,57.46
2023-10-15T09:22:33.796Z,58.09
2023-10-15T09:34:40.354Z,58.35
2023-10-15T09:39:45.365Z,57.32
2023-10-15T09:45:32.585Z,56.74
2023-10-15T09:50:40.930Z,57.05
2023-10-15T09:55:47.914Z,57.95
2023-10-15T10:01:10.947Z,57.18
2023-10-15T10:14:12.924Z,56.95
2023-10-15T10:20:33.501Z,57.36
2023-10-15T10:25:46.785Z,57.87
2023-10-15T10:31:01.457Z,56.99
2023-10-15T10:36:19.772Z,57.06
2023-10-15T10:41:47.805Z,56.47
2023-10-15T10:46:58.090Z,56.35
2023-10-15T10:52:20.869Z,57.18
2023-10-15T10:57:33.331Z,57.87
2023-10-15T11:02:37.494Z,56.56
2023-10-15T11:07:42.689Z,56.55
2023-10-15T11:12:50.881Z,54.35
2023-10-15T11:18:28.317Z,54.67
2023-10-15T11:23:35.220Z,53.90
2023-10-15T11:28:39.341Z,52.41
2023-10-15T11:33:43.658Z,52.62
2023-10-15T11:38:48.907Z,52.80
2023-10-15T11:43:52.834Z,52.98
2023-10-15T11:56:05.240Z,50.45
2023-10-15T12:01:12.248Z,51.04
2023-10-15T12:06:18.192Z,51.92
2023-10-15T12:21:42.970Z,51.62
2023-10-15T12:26:49.550Z,51.79
2023-10-15T12:32:00.046Z,52.38
2023-10-15T12:51:29.467Z,52.38
2023-10-15T12:56:33.635Z,52.20
2023-10-15T13:02:55.723Z,51.71
2023-10-15T13:08:50.924Z,51.17
2023-10-15T13:14:56.704Z,50.69
2023-10-15T13:20:51.962Z,51.38
2023-10-15T13:27:37.542Z,50.24
2023-10-15T13:34:03.745Z,48.77
2023-10-15T13:39:16.990Z,45.21
2023-10-15T13:44:56.861Z,44.21
2023-10-15T13:50:52.784Z,44.83
2023-10-15T13:55:56.953Z,46.95
2023-10-15T14:01:00.977Z,48.15
2023-10-15T14:06:46.647Z,49.61
2023-10-15T14:11:51.936Z,49.27
2023-10-15T14:16:56.719Z,49.98
2023-10-15T14:36:08.849Z,47.49
2023-10-15T14:41:42.561Z,46.16
2023-10-15T14:46:46.612Z,45.29
2023-10-15T14:51:50.563Z,45.61
2023-10-15T14:56:55.236Z,47.06
2023-10-15T15:09:38.008Z,50.41
2023-10-15T15:15:55.088Z,51.70
2023-10-15T15:21:50.293Z,52.42
2023-10-15T15:34:25.485Z,53.89
2023-10-15T15:40:43.005Z,54.76
2023-10-15T15:47:02.623Z,55.58
2023-10-15T15:53:25.136Z,56.55
2023-10-15T16:07:39.208Z,58.74
2023-10-15T16:12:46.363Z,58.99
2023-10-15T16:17:52.902Z,59.09
2023-10-15T16:22:59.111Z,59.27
2023-10-15T16:35:10.031Z,59.71
2023-10-15T16:40:14.606Z,59.90
2023-10-15T16:45:19.757Z,60.21
2023-10-15T16:57:45.718Z,60.86
2023-10-15T17:02:49.560Z,61.16
2023-10-15T17:07:53.663Z,61.42
2023-10-15T17:27:30.839Z,62.00
2023-10-15T17:33:04.918Z,61.99
2023-10-15T17:46:34.213Z,61.93
2023-10-15T17:51:42.627Z,62.01
2023-10-15T17:56:46.960Z,62.16
2023-10-15T18:01:51.189Z,62.23
2023-10-15T18:07:23.282Z,60.36
2023-10-15T18:12:28.417Z,59.37
2023-10-15T18:28:05.482Z,61.18
2023-10-15T18:33:12.969Z,61.13
2023-10-15T18:38:18.251Z,61.14
2023-10-15T18:44:44.818Z,61.33
2023-10-15T19:00:14.478Z,60.82
2023-10-15T19:05:20.309Z,60.78
2023-10-15T19:11:17.682Z,60.84
2023-10-15T19:16:21.970Z,60.61
2023-10-15T19:21:26.345Z,60.72
2023-10-15T19:33:33.999Z,60.84
2023-10-15T19:38:38.230Z,61.12
2023-10-15T19:44:08.166Z,61.40
2023-10-15T19:49:12.488Z,61.63
2023-10-15T19:54:17.991Z,61.92
2023-10-15T19:59:22.509Z,62.37
2023-10-15T20:04:52.126Z,60.50
2023-10-15T20:09:56.327Z,58.63
2023-10-15T20:16:16.551Z,60.73
2023-10-15T20:21:20.677Z,62.41
2023-10-15T20:26:34.378Z,58.56
2023-10-15T20:31:39.147Z,57.18
2023-10-15T20:55:59.178Z,61.07
2023-10-15T21:08:24.870Z,59.62
2023-10-15T21:32:45.073Z,61.58
2023-10-15T21:52:15.313Z,61.06
2023-10-15T22:04:25.993Z,61.44
2023-10-15T22:09:30.525Z,61.45
2023-10-15T22:14:50.364Z,61.71
2023-10-15T22:20:28.912Z,62.43
2023-10-15T22:25:35.828Z,62.53
2023-10-15T22:30:39.922Z,62.91
2023-10-15T22:35:47.509Z,63.49
2023-10-15T22:40:52.213Z,63.89
2023-10-15T22:45:56.396Z,63.92
2023-10-15T22:51:00.467Z,64.67
2023-10-15T22:56:04.979Z,64.89
2023-10-15T23:01:10.053Z,64.78
2023-10-15T23:06:16.290Z,64.67
2023-10-15T23:12:45.647Z,65.24
2023-10-15T23:17:49.734Z,65.57
2023-10-15T23:22:58.162Z,65.59
2023-10-15T23:28:14.900Z,65.75
2023-10-15T23:33:22.156Z,66.28
2023-10-15T23:39:21.006Z,66.26
2023-10-15T23:51:24.735Z,66.30
2023-10-15T23:56:33.407Z,66.10
